createdAt,value
2019-04-07T00:00:43.144Z,17.77
2019-04-07T00:05:47.428Z,18.48
2019-04-07T00:10:51.685Z,19.10
2019-04-07T00:15:55.703Z,18.57
2019-04-07T00:21:00.187Z,16.87
2019-04-07T00:26:04.164Z,14.45
2019-04-07T00:31:08.434Z,13.98
2019-04-07T00:36:12.236Z,13.28
2019-04-07T00:41:15.913Z,14.73
2019-04-07T00:46:20.051Z,14.90
2019-04-07T00:51:23.931Z,15.50
2019-04-07T00:56:28.470Z,16.90
2019-04-07T01:01:32.336Z,15.80
2019-04-07T01:06:36.047Z,17.42
2019-04-07T01:11:39.783Z,16.67
2019-04-07T01:16:43.992Z,18.05
2019-04-07T01:21:48.465Z,17.05
2019-04-07T01:26:52.541Z,18.57
2019-04-07T01:31:56.373Z,18.98
2019-04-07T01:37:00.061Z,18.80
2019-04-07T01:42:05.822Z,18.48
2019-04-07T01:47:12.340Z,17.65
2019-04-07T01:52:18.215Z,18.92
2019-04-07T01:57:40.121Z,17.80
2019-04-07T02:02:45.573Z,19.20
2019-04-07T02:07:53.937Z,18.98
2019-04-07T02:18:32.045Z,17.55
2019-04-07T02:23:53.607Z,17.17
2019-04-07T02:29:02.673Z,17.35
2019-04-07T02:34:11.818Z,15.98
2019-04-07T02:39:34.660Z,15.13
2019-04-07T02:45:01.388Z,17.00
2019-04-07T02:50:27.931Z,15.15
2019-04-07T02:55:33.536Z,17.10
2019-04-07T03:00:57.715Z,16.05
2019-04-07T03:06:09.988Z,16.17
2019-04-07T03:11:27.655Z,16.17
2019-04-07T03:16:36.066Z,14.70
2019-04-07T03:27:03.864Z,16.07
2019-04-07T03:32:27.579Z,17.32
2019-04-07T03:37:44.632Z,16.55
2019-04-07T03:42:48.625Z,17.37
2019-04-07T03:48:00.757Z,17.00
2019-04-07T03:53:06.213Z,17.23
2019-04-07T03:58:12.198Z,17.60
2019-04-07T04:03:17.848Z,16.40
2019-04-07T04:08:24.482Z,16.00
2019-04-07T04:13:36.007Z,15.80
2019-04-07T04:18:40.557Z,16.32
2019-04-07T04:23:45.693Z,18.02
2019-04-07T04:28:49.386Z,17.73
2019-04-07T04:33:54.260Z,18.57
2019-04-07T04:38:59.215Z,19.77
2019-04-07T04:44:04.192Z,18.42
2019-04-07T04:49:08.038Z,18.35
2019-04-07T04:54:12.590Z,18.02
2019-04-07T04:59:16.434Z,15.13
2019-04-07T05:04:20.733Z,13.90
2019-04-07T05:09:24.795Z,13.75
2019-04-07T05:14:29.426Z,16.77
2019-04-07T05:19:33.426Z,15.98
2019-04-07T05:24:38.109Z,13.80
2019-04-07T05:29:41.853Z,12.88
2019-04-07T05:34:45.615Z,12.55
2019-04-07T05:39:49.366Z,12.18
2019-04-07T05:44:53.625Z,10.08
2019-04-07T05:49:58.756Z,8.85
2019-04-07T05:55:02.752Z,8.20
2019-04-07T06:00:16.296Z,7.35
2019-04-07T06:05:19.723Z,7.95
2019-04-07T06:10:27.644Z,8.68
2019-04-07T06:15:29.111Z,9.85
2019-04-07T06:20:33.353Z,8.60
2019-04-07T06:25:41.155Z,8.53
2019-04-07T06:30:42.888Z,7.90
2019-04-07T06:35:47.645Z,8.65
2019-04-07T06:40:56.518Z,9.28
2019-04-07T06:46:14.133Z,9.38
2019-04-07T06:51:19.618Z,9.40
2019-04-07T06:56:32.227Z,8.58
2019-04-07T07:01:35.304Z,8.38
2019-04-07T07:06:48.254Z,8.98
2019-04-07T07:11:56.288Z,8.70
2019-04-07T07:17:10.843Z,10.03
2019-04-07T07:22:19.148Z,7.47
2019-04-07T07:27:23.011Z,7.78
2019-04-07T07:32:26.882Z,7.47
2019-04-07T07:37:31.114Z,7.25
2019-04-07T07:42:35.600Z,7.60
2019-04-07T07:47:39.443Z,6.03
2019-04-07T07:52:43.297Z,6.28
2019-04-07T07:57:47.146Z,8.53
2019-04-07T08:02:52.580Z,8.40
2019-04-07T08:07:56.340Z,10.72
2019-04-07T08:13:02.575Z,10.88
2019-04-07T08:18:07.660Z,10.55
2019-04-07T08:23:12.172Z,26.42
2019-04-07T08:28:18.815Z,8.30
2019-04-07T08:33:21.288Z,7.95
2019-04-07T08:38:27.122Z,8.68
2019-04-07T08:43:30.743Z,8.78
2019-04-07T08:48:34.533Z,9.35
2019-04-07T08:53:38.857Z,12.00
2019-04-07T08:58:44.357Z,8.23
2019-04-07T09:03:48.674Z,9.88
2019-04-07T09:08:53.160Z,9.60
2019-04-07T09:13:57.022Z,10.88
2019-04-07T09:19:11.006Z,10.70
2019-04-07T09:24:32.388Z,10.05
2019-04-07T09:29:58.259Z,9.68
2019-04-07T09:35:22.771Z,9.73
2019-04-07T09:40:46.211Z,10.03
2019-04-07T09:45:58.487Z,10.98
2019-04-07T09:51:16.531Z,8.58
2019-04-07T09:56:32.880Z,6.85
2019-04-07T10:01:37.844Z,7.25
2019-04-07T10:06:55.449Z,6.00
2019-04-07T10:12:06.694Z,6.65
2019-04-07T10:17:18.175Z,6.75
2019-04-07T10:22:29.843Z,6.83
2019-04-07T10:27:42.915Z,6.87
2019-04-07T10:33:00.265Z,5.87
2019-04-07T10:38:08.739Z,5.90
2019-04-07T10:43:30.395Z,5.35
2019-04-07T10:48:36.683Z,9.15
2019-04-07T10:53:44.990Z,4.55
2019-04-07T10:58:52.912Z,5.37
2019-04-07T11:03:58.159Z,4.90
2019-04-07T11:09:09.635Z,4.28
2019-04-07T11:14:31.178Z,4.70
2019-04-07T11:19:37.704Z,5.37
2019-04-07T11:24:46.951Z,5.42
2019-04-07T11:29:52.839Z,7.83
2019-04-07T11:34:58.486Z,8.98
2019-04-07T11:40:04.683Z,7.08
2019-04-07T11:45:25.639Z,7.10
2019-04-07T11:50:34.346Z,5.17
2019-04-07T11:55:46.479Z,9.15
2019-04-07T12:01:12.969Z,7.00
2019-04-07T12:06:26.869Z,5.85
2019-04-07T12:11:41.867Z,9.15
2019-04-07T12:16:58.373Z,8.75
2019-04-07T12:22:08.745Z,11.43
2019-04-07T12:27:17.246Z,8.27
2019-04-07T12:32:26.138Z,7.20
2019-04-07T12:37:47.726Z,10.25
2019-04-07T12:42:59.732Z,8.68
2019-04-07T12:48:05.860Z,7.45
2019-04-07T12:53:17.479Z,6.45
2019-04-07T12:58:35.563Z,8.60
2019-04-07T13:03:40.869Z,7.50
2019-04-07T13:09:02.307Z,9.00
2019-04-07T13:14:25.422Z,8.73
2019-04-07T13:19:46.711Z,7.40
2019-04-07T13:24:50.911Z,8.28
2019-04-07T13:29:56.456Z,6.65
2019-04-07T13:35:17.945Z,7.70
2019-04-07T13:40:24.103Z,10.75
2019-04-07T13:45:30.135Z,11.63
2019-04-07T13:50:52.535Z,11.12
2019-04-07T13:56:07.219Z,9.70
2019-04-07T14:01:12.800Z,9.55
2019-04-07T14:06:22.200Z,10.32
2019-04-07T14:11:58.223Z,9.98
2019-04-07T14:16:59.902Z,8.60
2019-04-07T14:22:08.852Z,10.70
2019-04-07T14:27:17.060Z,9.10
2019-04-07T14:32:38.464Z,8.03
2019-04-07T14:37:52.747Z,7.60
2019-04-07T14:43:13.646Z,9.23
2019-04-07T14:48:31.014Z,9.15
2019-04-07T14:53:42.073Z,9.55
2019-04-07T14:58:51.268Z,11.28
2019-04-07T15:03:53.077Z,7.80
2019-04-07T15:09:01.843Z,10.13
2019-04-07T15:14:04.220Z,11.40
2019-04-07T15:19:08.405Z,10.60
2019-04-07T15:24:12.250Z,9.88
2019-04-07T15:29:15.894Z,10.28
2019-04-07T15:34:19.855Z,11.48
2019-04-07T15:39:25.712Z,10.60
2019-04-07T15:44:29.110Z,12.13
2019-04-07T15:49:34.386Z,13.18
2019-04-07T15:54:38.060Z,11.33
2019-04-07T15:59:42.524Z,13.32
2019-04-07T16:04:46.893Z,10.78
2019-04-07T16:09:56.320Z,12.13
2019-04-07T16:14:56.403Z,12.60
2019-04-07T16:20:00.564Z,12.05
2019-04-07T16:25:08.038Z,14.78
2019-04-07T16:30:13.763Z,14.45
2019-04-07T16:35:18.212Z,14.30
2019-04-07T16:40:21.964Z,15.08
2019-04-07T16:45:25.559Z,16.02
2019-04-07T16:50:29.514Z,14.70
2019-04-07T16:55:37.190Z,14.18
2019-04-07T17:00:41.783Z,13.65
2019-04-07T17:05:46.284Z,15.38
2019-04-07T17:10:50.670Z,16.62
2019-04-07T17:15:55.261Z,15.90
2019-04-07T17:20:59.311Z,15.88
2019-04-07T17:26:05.677Z,15.72
2019-04-07T17:31:08.979Z,17.70
2019-04-07T17:36:16.590Z,20.75
2019-04-07T17:41:18.422Z,21.82
2019-04-07T17:46:27.337Z,23.00
2019-04-07T17:51:40.278Z,16.62
2019-04-07T17:56:48.155Z,22.15
2019-04-07T18:01:55.454Z,22.42
2019-04-07T18:07:06.656Z,23.73
2019-04-07T18:12:14.350Z,25.77
2019-04-07T18:17:30.777Z,29.37
2019-04-07T18:22:42.273Z,28.85
2019-04-07T18:28:03.846Z,26.65
2019-04-07T18:33:18.222Z,23.70
2019-04-07T18:38:21.785Z,24.05
2019-04-07T18:43:30.060Z,22.13
2019-04-07T18:48:50.197Z,24.72
2019-04-07T18:54:09.540Z,26.62
2019-04-07T18:59:17.090Z,22.48
2019-04-07T19:04:35.466Z,16.07
2019-04-07T19:10:03.721Z,15.13
2019-04-07T19:15:10.539Z,14.85
2019-04-07T19:20:27.556Z,18.55
2019-04-07T19:25:35.660Z,18.95
2019-04-07T19:30:46.354Z,20.52
2019-04-07T19:36:10.286Z,18.87
2019-04-07T19:41:19.983Z,21.45
2019-04-07T19:46:31.546Z,23.15
2019-04-07T19:51:50.545Z,26.80
2019-04-07T19:57:11.834Z,34.75
2019-04-07T20:02:32.679Z,35.00
2019-04-07T20:07:52.626Z,36.20
2019-04-07T20:12:58.355Z,38.05
2019-04-07T20:18:07.171Z,38.28
2019-04-07T20:23:18.347Z,36.50
2019-04-07T20:28:30.284Z,37.58
2019-04-07T20:33:38.409Z,37.40
2019-04-07T20:38:46.473Z,36.38
2019-04-07T20:44:08.310Z,37.63
2019-04-07T20:49:23.083Z,39.23
2019-04-07T20:54:34.077Z,39.90
2019-04-07T20:59:50.403Z,39.65
2019-04-07T21:04:53.066Z,36.65
2019-04-07T21:10:06.535Z,31.48
2019-04-07T21:15:24.538Z,27.80
2019-04-07T21:20:26.623Z,29.50
2019-04-07T21:25:37.654Z,25.82
2019-04-07T21:30:46.253Z,26.95
2019-04-07T21:36:10.414Z,26.68
2019-04-07T21:41:32.769Z,26.07
2019-04-07T21:46:54.154Z,25.82
2019-04-07T21:51:56.857Z,25.05
2019-04-07T21:57:04.701Z,24.47
2019-04-07T22:02:12.156Z,24.13
2019-04-07T22:07:33.665Z,24.92
2019-04-07T22:12:38.023Z,24.18
2019-04-07T22:17:41.819Z,24.75
2019-04-07T22:22:45.609Z,30.75
2019-04-07T22:27:49.299Z,29.50
2019-04-07T22:32:54.027Z,28.25
2019-04-07T22:37:58.854Z,31.35
2019-04-07T22:43:03.481Z,31.07
2019-04-07T22:48:08.345Z,28.27
2019-04-07T22:53:12.278Z,30.70
2019-04-07T22:58:16.009Z,32.40
2019-04-07T23:03:19.779Z,31.12
2019-04-07T23:08:24.288Z,28.35
2019-04-07T23:13:28.202Z,34.18
2019-04-07T23:18:31.817Z,32.25
2019-04-07T23:23:35.386Z,33.45
2019-04-07T23:28:39.081Z,30.82
2019-04-07T23:33:43.819Z,32.78
2019-04-07T23:38:47.552Z,32.53
2019-04-07T23:43:51.228Z,32.78
2019-04-07T23:48:54.818Z,27.77
2019-04-07T23:54:10.894Z,31.12
2019-04-07T23:59:15.039Z,30.77
